KFET/FET METAR and TAF weather

Enter ICAO airport designator
Station Type Date Time Source
KFET METAR 2019/08/24 17:35 UTC NOAA

KFET 241735Z AUTO 12012G18KT 10SM OVC022 23/17 A3008 RMK AO2 T02320171


Station Type Date Time Source
KFET Decoded METAR 2019/08/24 17:35 UTC NOAA

Station name not available
Aug 24, 2019 - 01:35 PM EDT / 2019.08.24 1735 UTC
Wind: from the ESE (120 degrees) at 14 MPH (12 KT) gusting to 21 MPH (18 KT):0
Visibility: 10 mile(s):0
Sky conditions: overcast
Temperature: 73.8 F (23.2 C)
Dew Point: 62.8 F (17.1 C)
Relative Humidity: 68%
Pressure (altimeter): 30.08 in. Hg (1018 hPa)
ob: KFET 241735Z AUTO 12012G18KT 10SM OVC022 23/17 A3008 RMK AO2 T02320171
cycle: 17

Station Type Date Time Source
KFET TAF UTC NOAA

Error!

Example: see airport list